ΕΜΥ, Εθνική Μετεωρολογική Υπηρεσία - Δελτία Καιρού, Προγνώσεις

ΑΕΡΟΝΑΥΤΙΛΙΑ

GREEK AIRPORTS CODES

LGAV 201220Z 09008KT 9999 SCT025 31/14 Q1012 RMK FEW080 NOSIG=

EUROPEAN AIRPORTS CODES

LFPO 201230Z 29008KT 240V330 9999 BKN036 SCT260 20/11 Q1016NOSIG=